Time;durP1;ratioP1;P1;durP2;ratioP2;P2;SDS_P1;SDS_P2;PMS_P1;PMS_P2;Temp;Humidity;BMP_temperature;BMP_pressure;BME280_temperature;BME280_humidity;BME280_pressure;Samples;Min_cycle;Max_cycle;Signal;HPM_P1;HPM_P2
2021/07/16 00:04:57;;;;;;;18.08;7.30;;;;;;;19.05;72.80;102186.53;10543102;28;20040;-74
2021/07/16 00:09:58;;;;;;;10.38;6.32;;;;;;;18.89;72.29;102195.28;10542854;28;20032;-75
2021/07/16 00:14:58;;;;;;;20.77;8.45;;;;;;;18.98;72.14;102192.03;10542961;28;20502;-74
2021/07/16 00:19:58;;;;;;;24.02;6.65;;;;;;;19.09;72.47;102184.19;10544717;28;20054;-76
2021/07/16 00:24:59;;;;;;;20.45;6.63;;;;;;;19.07;71.63;102189.03;10542148;28;20498;-76
2021/07/16 00:30:00;;;;;;;13.35;7.07;;;;;;;18.98;71.86;102178.31;10525099;28;20055;-74
2021/07/16 00:35:00;;;;;;;22.35;8.55;;;;;;;18.94;73.32;102192.72;10524687;28;20036;-74
2021/07/16 00:40:02;;;;;;;26.23;7.25;;;;;;;18.99;73.78;102192.91;10542938;28;20028;-74
2021/07/16 00:45:05;;;;;;;13.93;6.53;;;;;;;18.68;73.44;102178.06;10523266;28;20056;-76
2021/07/16 00:50:10;;;;;;;8.60;6.13;;;;;;;18.84;72.91;102195.13;10541077;28;20035;-76
2021/07/16 00:55:11;;;;;;;18.20;6.28;;;;;;;18.68;72.09;102186.31;10524252;28;20046;-76
2021/07/16 01:00:12;;;;;;;9.00;6.05;;;;;;;18.86;71.39;102196.59;10541072;28;20424;-76
2021/07/16 01:05:15;;;;;;;10.15;6.05;;;;;;;18.50;73.14;102145.06;10541872;28;20115;-76
2021/07/16 01:10:16;;;;;;;18.15;5.20;;;;;;;18.51;71.70;102149.50;10541559;28;20028;-75
2021/07/16 01:15:17;;;;;;;8.63;5.10;;;;;;;18.74;73.33;102203.84;10539259;28;20116;-75
2021/07/16 01:20:28;;;;;;;13.10;5.57;;;;;;;18.66;73.61;102224.09;10506529;28;20111;-74
2021/07/16 01:25:30;;;;;;;10.60;6.35;;;;;;;18.67;72.56;102224.97;10541086;28;20111;-74
2021/07/16 01:30:32;;;;;;;11.63;4.65;;;;;;;18.37;72.39;102173.38;10539757;28;20036;-74
2021/07/16 01:35:33;;;;;;;10.80;5.40;;;;;;;18.66;70.34;102224.09;10540441;28;20098;-74
2021/07/16 01:40:37;;;;;;;17.15;5.00;;;;;;;18.61;73.17;102203.88;10540541;28;20470;-74
2021/07/16 01:45:39;;;;;;;15.63;6.07;;;;;;;18.54;72.04;102196.53;10539394;28;20048;-74
2021/07/16 01:50:42;;;;;;;8.48;4.82;;;;;;;18.75;70.41;102211.84;10540218;28;20391;-74
2021/07/16 01:55:42;;;;;;;16.08;6.38;;;;;;;18.85;70.69;102232.47;10539760;28;20448;-74
2021/07/16 02:00:46;;;;;;;6.32;5.15;;;;;;;18.80;71.43;102223.00;10539261;28;20102;-74
2021/07/16 02:05:47;;;;;;;12.15;6.10;;;;;;;18.90;71.02;102217.03;10538458;28;20032;-75
2021/07/16 02:10:54;;;;;;;11.65;5.55;;;;;;;18.88;71.88;102221.91;10538342;28;20055;-74
2021/07/16 02:15:55;;;;;;;11.07;4.00;;;;;;;18.81;71.42;102221.94;10537319;28;20094;-75
2021/07/16 02:20:55;;;;;;;11.90;5.00;;;;;;;18.74;73.99;102232.13;10539283;28;20197;-74
2021/07/16 02:25:56;;;;;;;8.02;5.38;;;;;;;18.49;70.60;102221.03;10539310;28;20063;-74
2021/07/16 02:30:58;;;;;;;12.18;5.05;;;;;;;18.41;71.63;102221.28;10539000;28;20043;-74
2021/07/16 02:35:59;;;;;;;16.00;5.68;;;;;;;18.56;71.02;102242.94;10538899;28;20115;-73
2021/07/16 02:40:59;;;;;;;9.80;5.07;;;;;;;18.46;70.95;102234.34;10538921;28;20111;-74
2021/07/16 02:45:59;;;;;;;7.05;3.85;;;;;;;18.57;69.62;102236.41;10537471;28;20052;-74
2021/07/16 02:51:00;;;;;;;13.10;5.60;;;;;;;18.51;70.63;102221.66;10538602;28;20051;-75
2021/07/16 02:56:00;;;;;;;16.23;4.80;;;;;;;18.55;71.48;102225.63;10537433;28;20039;-74
2021/07/16 03:01:01;;;;;;;15.27;4.88;;;;;;;18.50;71.08;102208.13;10537100;28;20498;-75
2021/07/16 03:06:01;;;;;;;14.70;6.22;;;;;;;18.45;72.20;102232.66;10537329;28;20055;-75
2021/07/16 03:11:02;;;;;;;12.95;5.13;;;;;;;18.46;71.49;102212.38;10537274;28;20470;-75
2021/07/16 03:16:02;;;;;;;9.23;4.50;;;;;;;18.53;70.46;102230.50;10561047;28;20115;-75
2021/07/16 03:21:03;;;;;;;22.52;6.47;;;;;;;18.23;69.55;102189.06;10544524;28;20036;-75
2021/07/16 03:26:03;;;;;;;11.05;5.03;;;;;;;18.11;70.24;102172.44;10544451;28;20035;-75
2021/07/16 03:31:04;;;;;;;13.82;5.57;;;;;;;18.49;70.60;102234.72;10544394;28;20039;-76
2021/07/16 03:36:06;;;;;;;10.00;5.22;;;;;;;17.95;70.85;102134.56;10545267;28;20036;-76
2021/07/16 03:41:08;;;;;;;13.68;5.28;;;;;;;18.45;70.40;102230.75;10527279;28;20032;-76
2021/07/16 03:46:08;;;;;;;17.58;5.10;;;;;;;18.49;70.73;102244.88;10544113;28;20101;-76
2021/07/16 03:51:09;;;;;;;9.52;5.53;;;;;;;18.44;70.52;102234.56;10543566;28;20111;-76
2021/07/16 03:56:10;;;;;;;36.20;6.47;;;;;;;18.53;70.79;102229.66;10543374;28;20499;-76
2021/07/16 04:01:10;;;;;;;19.30;6.45;;;;;;;18.62;70.68;102236.56;10544233;28;20063;-76
2021/07/16 04:06:10;;;;;;;28.05;5.38;;;;;;;18.64;70.78;102231.72;10544100;28;20054;-76
2021/07/16 04:11:11;;;;;;;16.48;6.22;;;;;;;18.53;73.44;102235.13;10542774;28;20062;-76
2021/07/16 04:16:11;;;;;;;12.90;6.05;;;;;;;18.26;70.41;102187.81;10541238;28;20043;-77
2021/07/16 04:21:12;;;;;;;16.80;6.05;;;;;;;18.58;71.22;102243.56;10542153;28;20032;-76
2021/07/16 04:26:12;;;;;;;12.73;5.22;;;;;;;18.64;70.82;102247.34;10542274;28;20040;-76
2021/07/16 04:31:13;;;;;;;13.77;4.15;;;;;;;18.73;70.82;102262.50;10543829;28;20032;-75
2021/07/16 04:36:14;;;;;;;8.88;3.58;;;;;;;18.36;70.59;102174.47;10524868;28;20097;-75
2021/07/16 04:41:14;;;;;;;13.07;5.03;;;;;;;18.75;70.00;102263.13;10542586;28;20138;-75
2021/07/16 04:46:15;;;;;;;11.88;5.30;;;;;;;18.59;71.29;102223.28;10541648;28;20126;-76
2021/07/16 04:51:34;;;;;;;7.15;4.28;;;;;;;18.79;73.62;102273.47;10540826;28;20078;-75
2021/07/16 04:56:34;;;;;;;10.68;6.13;;;;;;;18.74;71.28;102264.22;10542154;28;20081;-75
2021/07/16 05:01:34;;;;;;;14.88;6.22;;;;;;;18.53;70.97;102251.59;10541830;28;20036;-75
2021/07/16 05:06:35;;;;;;;16.05;5.20;;;;;;;18.48;72.00;102204.78;10541628;28;20120;-75
2021/07/16 05:11:35;;;;;;;10.73;4.75;;;;;;;18.97;70.71;102269.16;10541487;28;20062;-75
2021/07/16 05:16:36;;;;;;;16.48;4.78;;;;;;;19.15;70.93;102261.00;10539370;28;20067;-75
2021/07/16 05:21:36;;;;;;;15.40;4.95;;;;;;;19.12;70.07;102258.72;10540944;28;20542;-76
2021/07/16 05:26:37;;;;;;;8.30;4.15;;;;;;;18.95;70.16;102263.03;10539656;28;20031;-76
2021/07/16 05:31:37;;;;;;;14.57;4.32;;;;;;;18.85;70.82;102273.66;10540739;28;20036;-76
2021/07/16 05:36:37;;;;;;;16.35;3.83;;;;;;;18.59;72.49;102265.28;10538292;28;20467;-75
2021/07/16 05:41:38;;;;;;;17.92;5.55;;;;;;;18.75;69.99;102294.16;10522237;28;20036;-76
2021/07/16 05:46:38;;;;;;;11.85;5.25;;;;;;;18.64;72.69;102231.72;10539308;28;20181;-74
2021/07/16 05:51:39;;;;;;;19.23;6.40;;;;;;;19.16;72.72;102292.88;10538729;28;20039;-75
2021/07/16 05:56:41;;;;;;;14.73;5.00;;;;;;;18.92;71.99;102252.47;10540598;28;20040;-75
2021/07/16 06:01:41;;;;;;;8.13;4.53;;;;;;;19.19;71.27;102262.25;10539460;28;20385;-75
2021/07/16 06:06:42;;;;;;;7.63;5.00;;;;;;;19.43;70.06;102289.94;10555112;28;20027;-75
2021/07/16 06:11:42;;;;;;;11.30;3.95;;;;;;;19.43;72.98;102284.47;10539355;28;20483;-75
2021/07/16 06:16:42;;;;;;;8.30;3.58;;;;;;;19.70;70.00;102296.13;10541574;28;20040;-74
2021/07/16 06:21:43;;;;;;;14.80;4.88;;;;;;;19.61;69.08;102290.03;10537864;28;20040;-73
2021/07/16 06:26:43;;;;;;;12.32;5.43;;;;;;;19.49;70.07;102305.53;10538955;28;20115;-74
2021/07/16 06:31:44;;;;;;;22.55;5.10;;;;;;;19.25;69.85;102298.97;10538801;28;20032;-74
2021/07/16 06:36:44;;;;;;;8.10;4.35;;;;;;;19.37;68.31;102327.41;10490271;28;20048;-73
2021/07/16 06:41:44;;;;;;;10.10;5.03;;;;;;;19.68;69.88;102312.81;10520589;28;20062;-74
2021/07/16 06:46:45;;;;;;;27.25;6.45;;;;;;;19.91;68.47;102306.72;10539031;28;20056;-74
2021/07/16 06:51:45;;;;;;;12.98;5.55;;;;;;;20.30;71.26;102296.38;10546818;28;20039;-74
2021/07/16 06:56:46;;;;;;;10.23;5.47;;;;;;;20.64;68.63;102322.50;10547756;28;20028;-74
2021/07/16 07:01:46;;;;;;;8.57;4.18;;;;;;;21.35;67.38;102334.69;10529030;28;20059;-75
2021/07/16 07:06:47;;;;;;;33.55;5.50;;;;;;;21.42;67.69;102334.59;10546427;28;20028;-74
2021/07/16 07:11:47;;;;;;;22.05;5.13;;;;;;;21.47;65.67;102323.69;10529085;28;20120;-75
2021/07/16 07:16:48;;;;;;;6.20;5.40;;;;;;;22.61;65.27;102334.41;10515454;28;20043;-76
2021/07/16 07:21:48;;;;;;;5.35;4.25;;;;;;;22.31;64.90;102317.22;10503347;28;20044;-74
2021/07/16 07:26:49;;;;;;;13.65;5.75;;;;;;;22.11;61.19;102325.81;10503408;28;20108;-74
2021/07/16 07:31:49;;;;;;;12.43;5.78;;;;;;;22.43;62.81;102346.47;10484812;28;20800;-75
2021/07/16 07:36:49;;;;;;;16.48;4.38;;;;;;;22.46;63.76;102343.22;10503024;28;20035;-75
2021/07/16 07:41:50;;;;;;;16.65;4.57;;;;;;;22.02;63.63;102359.28;10516372;28;20064;-76
2021/07/16 07:46:50;;;;;;;12.00;3.88;;;;;;;22.01;64.16;102349.31;10543790;28;20514;-76
2021/07/16 07:51:51;;;;;;;18.60;5.93;;;;;;;22.55;64.54;102351.13;10544096;28;20059;-76
2021/07/16 07:56:51;;;;;;;15.27;5.03;;;;;;;21.97;63.26;102294.88;10525832;28;20127;-80
2021/07/16 08:01:51;;;;;;;7.38;4.90;;;;;;;23.31;61.67;102361.00;10543231;28;20035;-77
2021/07/16 08:06:52;;;;;;;7.47;4.40;;;;;;;22.40;61.41;102288.13;10550163;28;20035;-77
2021/07/16 08:11:52;;;;;;;27.73;6.00;;;;;;;22.68;63.06;102356.38;10543920;28;20126;-75
2021/07/16 08:16:53;;;;;;;9.20;4.63;;;;;;;22.31;61.71;102268.38;10542742;28;20492;-76
2021/07/16 08:21:53;;;;;;;17.17;5.68;;;;;;;23.81;61.55;102373.28;10542019;28;20115;-77
2021/07/16 08:26:54;;;;;;;18.40;5.63;;;;;;;23.60;61.53;102372.03;10541953;28;20024;-77
2021/07/16 08:31:54;;;;;;;15.43;4.45;;;;;;;23.26;58.13;102360.06;10543892;28;20032;-76
2021/07/16 08:36:54;;;;;;;13.70;6.15;;;;;;;22.93;60.38;102364.34;10545080;28;20028;-77
2021/07/16 08:41:55;;;;;;;23.70;5.57;;;;;;;22.82;63.48;102387.34;10541958;28;20454;-76
2021/07/16 08:46:55;;;;;;;18.92;5.00;;;;;;;22.80;60.25;102345.31;10540374;28;20135;-76
2021/07/16 08:51:56;;;;;;;12.10;6.82;;;;;;;23.01;61.49;102366.78;10541449;28;20523;-77
2021/07/16 08:56:56;;;;;;;20.05;5.78;;;;;;;22.36;60.42;102328.34;10524206;28;20028;-75
2021/07/16 09:02:00;;;;;;;27.88;7.05;;;;;;;23.59;59.42;102360.13;10541508;28;20458;-75
2021/07/16 09:07:01;;;;;;;10.05;5.85;;;;;;;23.31;59.11;102388.66;10544556;28;20055;-78
2021/07/16 09:12:06;;;;;;;12.50;5.30;;;;;;;23.65;60.95;102385.97;10542700;28;20059;-77
2021/07/16 09:17:09;;;;;;;23.95;5.63;;;;;;;23.73;60.13;102398.56;10511345;28;20094;-76
2021/07/16 09:22:14;;;;;;;22.10;4.68;;;;;;;23.81;58.90;102406.47;10542897;28;20486;-77
2021/07/16 09:27:34;;;;;;;12.52;5.22;;;;;;;23.70;64.35;102397.13;10540817;28;20028;-77
2021/07/16 09:32:43;;;;;;;16.00;5.68;;;;;;;23.46;59.46;102401.09;10529789;28;20131;-79
2021/07/16 09:37:55;;;;;;;17.83;5.80;;;;;;;23.51;61.48;102365.22;10550746;28;20038;-80
2021/07/16 09:43:15;;;;;;;15.43;4.43;;;;;;;23.94;58.48;102414.44;10551784;28;20036;-78
2021/07/16 09:48:29;;;;;;;29.65;6.10;;;;;;;23.53;60.18;102369.44;10558833;28;20090;-76
2021/07/16 09:53:30;;;;;;;10.43;5.85;;;;;;;24.30;58.25;102374.31;10561194;28;20031;-77
2021/07/16 09:58:30;;;;;;;16.65;4.97;;;;;;;23.79;59.13;102361.59;10525478;28;20032;-76
2021/07/16 10:03:31;;;;;;;19.45;6.50;;;;;;;24.51;60.42;102427.28;10547571;28;20062;-76
2021/07/16 10:08:33;;;;;;;12.88;6.43;;;;;;;24.78;57.76;102403.28;10548246;28;20117;-75
2021/07/16 10:13:35;;;;;;;12.18;5.00;;;;;;;25.02;58.71;102437.13;10526738;28;20090;-75
2021/07/16 10:18:36;;;;;;;12.32;4.30;;;;;;;25.48;55.95;102406.34;10538428;28;20071;-74
2021/07/16 10:23:37;;;;;;;8.68;5.80;;;;;;;25.70;58.45;102443.22;10537008;28;20472;-73
2021/07/16 10:28:42;;;;;;;11.68;4.72;;;;;;;26.56;55.42;102425.66;10537664;28;20119;-77
2021/07/16 10:33:43;;;;;;;7.07;4.68;;;;;;;26.17;54.78;102405.63;10521857;28;20024;-77
2021/07/16 10:38:49;;;;;;;9.10;4.28;;;;;;;26.98;54.04;102462.84;10538958;28;20032;-77
2021/07/16 10:43:50;;;;;;;12.10;5.25;;;;;;;26.52;53.94;102382.84;10523009;28;20039;-77
2021/07/16 10:48:50;;;;;;;19.83;4.95;;;;;;;26.29;53.17;102449.84;10526971;28;20152;-76
2021/07/16 10:53:51;;;;;;;11.48;4.70;;;;;;;26.49;54.34;102458.38;10544425;28;20495;-76
2021/07/16 10:58:52;;;;;;;17.35;6.32;;;;;;;27.80;52.47;102453.69;10540693;28;20038;-78
2021/07/16 11:03:52;;;;;;;12.02;5.88;;;;;;;27.31;52.82;102428.22;10544141;28;20467;-78
2021/07/16 11:08:54;;;;;;;7.68;4.45;;;;;;;27.92;51.04;102453.44;10542189;28;20089;-76
2021/07/16 11:13:59;;;;;;;7.97;4.45;;;;;;;28.36;52.36;102452.84;10540600;28;20491;-77
2021/07/16 11:19:09;;;;;;;14.05;4.68;;;;;;;28.58;54.94;102440.59;10542601;28;20028;-78
2021/07/16 11:24:18;;;;;;;25.13;6.60;;;;;;;28.15;54.08;102440.91;10544170;28;20032;-78
2021/07/16 11:29:21;;;;;;;10.55;6.53;;;;;;;28.93;49.93;102443.28;10539850;28;20111;-78
2021/07/16 11:34:21;;;;;;;13.27;5.47;;;;;;;29.49;51.71;102450.59;10525672;28;20036;-77
2021/07/16 11:39:38;;;;;;;20.23;5.85;;;;;;;29.48;52.06;102439.69;10547039;28;20059;-78
2021/07/16 11:44:41;;;;;;;25.40;5.05;;;;;;;29.26;51.51;102326.56;10545541;28;20149;-77
2021/07/16 11:49:45;;;;;;;22.30;5.88;;;;;;;29.34;50.96;102443.13;10513346;28;20122;-78
2021/07/16 11:54:46;;;;;;;17.40;5.70;;;;;;;27.93;46.95;102393.84;10545488;28;20024;-77
2021/07/16 11:59:48;;;;;;;9.88;5.90;;;;;;;28.32;49.85;102428.63;10545478;28;20036;-77
2021/07/16 12:04:49;;;;;;;7.63;4.85;;;;;;;28.06;51.43;102389.66;10549075;28;20487;-77
2021/07/16 12:09:50;;;;;;;14.10;7.07;;;;;;;28.95;50.72;102448.59;10545112;28;20032;-76
2021/07/16 12:14:55;;;;;;;17.65;6.25;;;;;;;28.67;50.40;102455.63;10543860;28;20044;-76
2021/07/16 12:19:56;;;;;;;12.40;4.43;;;;;;;28.69;51.41;102459.81;10543311;28;20043;-75
2021/07/16 12:24:56;;;;;;;10.43;6.90;;;;;;;28.80;50.44;102470.94;10536415;28;20036;-77
2021/07/16 12:30:03;;;;;;;10.60;4.93;;;;;;;28.18;48.86;102408.88;10499647;28;20043;-77
2021/07/16 12:35:22;;;;;;;6.90;5.47;;;;;;;28.12;55.15;102398.88;10525503;28;20127;-78
2021/07/16 12:40:23;;;;;;;13.32;4.82;;;;;;;28.93;49.77;102454.44;10506171;28;20039;-77
2021/07/16 12:45:38;;;;;;;9.13;4.65;;;;;;;28.03;50.19;102457.91;10500042;28;20059;-78
2021/07/16 12:50:39;;;;;;;6.05;4.70;;;;;;;28.96;48.99;102451.06;10503601;28;20184;-79
2021/07/16 12:55:40;;;;;;;14.10;4.97;;;;;;;29.23;48.17;102424.78;10507235;28;20044;-77
2021/07/16 13:00:41;;;;;;;10.70;5.47;;;;;;;30.09;48.40;102456.06;10493283;28;20036;-78
2021/07/16 13:05:41;;;;;;;5.75;5.15;;;;;;;29.53;48.21;102456.44;10483026;28;20029;-77
2021/07/16 13:10:47;;;;;;;9.30;5.20;;;;;;;29.63;54.47;102431.28;10448882;28;20056;-78
2021/07/16 13:16:06;;;;;;;11.60;5.43;;;;;;;30.20;54.34;102471.63;10481335;28;20079;-77
2021/07/16 13:21:07;;;;;;;9.30;5.32;;;;;;;29.38;47.00;102421.06;10519476;28;20375;-79
2021/07/16 13:26:08;;;;;;;8.93;5.88;;;;;;;29.75;49.00;102454.09;10541565;28;20036;-77
2021/07/16 13:31:09;;;;;;;15.07;5.13;;;;;;;29.05;49.46;102431.00;10540998;28;20028;-78
2021/07/16 13:36:09;;;;;;;12.90;5.82;;;;;;;28.82;49.57;102435.25;10537016;28;20036;-77
2021/07/16 13:41:10;;;;;;;17.65;5.95;;;;;;;29.09;49.25;102471.97;10497112;28;20403;-78
2021/07/16 13:46:10;;;;;;;26.85;5.45;;;;;;;28.90;49.75;102477.31;10496389;28;20056;-76
2021/07/16 13:51:11;;;;;;;14.88;6.63;;;;;;;29.13;52.21;102489.84;10539911;28;20118;-76
2021/07/16 13:56:11;;;;;;;10.32;4.85;;;;;;;29.12;49.37;102473.38;10538712;28;20032;-76
2021/07/16 14:01:11;;;;;;;20.45;6.88;;;;;;;29.24;47.86;102475.84;10539269;28;20028;-76
2021/07/16 14:06:12;;;;;;;7.00;5.00;;;;;;;28.73;52.04;102471.25;10540485;28;20032;-78
2021/07/16 14:11:13;;;;;;;6.75;4.70;;;;;;;28.73;49.21;102476.81;10540726;28;20036;-77
2021/07/16 14:16:14;;;;;;;7.25;4.07;;;;;;;27.97;49.54;102466.53;10539463;28;20380;-75
2021/07/16 14:21:14;;;;;;;18.77;6.05;;;;;;;27.75;50.91;102450.03;10539588;28;20074;-75
2021/07/16 14:26:15;;;;;;;8.02;5.28;;;;;;;27.64;50.93;102420.53;10537773;28;20090;-76
2021/07/16 14:31:15;;;;;;;5.50;4.40;;;;;;;28.22;51.17;102457.34;10538150;28;20028;-75
2021/07/16 14:36:16;;;;;;;12.57;5.75;;;;;;;28.32;51.18;102470.44;10538119;28;20097;-73
2021/07/16 14:41:17;;;;;;;19.83;6.43;;;;;;;27.97;51.46;102464.56;10511467;28;20032;-74
2021/07/16 14:46:17;;;;;;;7.93;5.22;;;;;;;27.46;49.77;102458.88;10476866;28;20057;-74
2021/07/16 14:51:18;;;;;;;20.73;6.38;;;;;;;27.10;51.03;102428.13;10501131;28;20047;-79
2021/07/16 14:56:18;;;;;;;10.48;4.78;;;;;;;27.26;53.14;102461.59;10500037;28;20466;-77
2021/07/16 15:01:19;;;;;;;9.20;5.13;;;;;;;26.63;52.47;102423.47;10444923;28;20052;-77
2021/07/16 15:06:19;;;;;;;10.85;6.00;;;;;;;26.01;51.49;102374.13;10494763;28;20115;-76
2021/07/16 15:11:19;;;;;;;12.05;6.20;;;;;;;26.51;53.46;102435.88;10502879;28;20112;-77
2021/07/16 15:16:20;;;;;;;13.10;6.07;;;;;;;26.29;53.83;102456.28;10503523;28;20036;-76
2021/07/16 15:21:20;;;;;;;13.35;5.85;;;;;;;26.69;57.20;102409.59;10488182;28;20139;-77
2021/07/16 15:26:21;;;;;;;15.02;5.90;;;;;;;27.27;54.41;102463.28;10505018;28;20484;-76
2021/07/16 15:31:23;;;;;;;9.75;5.88;;;;;;;27.10;52.24;102463.47;10489352;28;20475;-76
2021/07/16 15:36:24;;;;;;;15.95;5.70;;;;;;;27.27;52.99;102455.75;10510262;28;20060;-77
2021/07/16 15:41:25;;;;;;;15.77;6.05;;;;;;;26.41;53.47;102397.72;10509939;28;20029;-76
2021/07/16 15:46:26;;;;;;;6.88;4.40;;;;;;;26.51;51.84;102447.00;10488026;28;20152;-78
2021/07/16 15:51:26;;;;;;;36.10;6.53;;;;;;;26.30;54.50;102457.09;10490257;28;20555;-77
2021/07/16 15:56:27;;;;;;;9.88;5.22;;;;;;;25.96;54.07;102426.81;10503359;28;20064;-78
2021/07/16 16:01:28;;;;;;;6.13;5.07;;;;;;;25.66;56.28;102419.88;10503776;28;20116;-78
2021/07/16 16:06:29;;;;;;;16.95;5.88;;;;;;;26.10;54.52;102449.41;10502328;28;20483;-77
2021/07/16 16:11:29;;;;;;;18.10;5.45;;;;;;;26.21;54.07;102456.75;10501823;28;20040;-78
2021/07/16 16:16:30;;;;;;;21.08;6.50;;;;;;;26.09;54.47;102433.88;10500486;28;20115;-78
2021/07/16 16:21:31;;;;;;;8.43;5.40;;;;;;;25.57;54.85;102438.09;10499742;28;20379;-78
2021/07/16 16:26:31;;;;;;;22.48;6.20;;;;;;;25.26;56.93;102459.06;10500411;28;20033;-77
2021/07/16 16:31:32;;;;;;;12.43;5.22;;;;;;;24.70;58.17;102463.84;10483618;28;20048;-79
2021/07/16 16:36:32;;;;;;;11.23;5.53;;;;;;;23.99;58.48;102460.72;10501583;28;20578;-77
2021/07/16 16:41:33;;;;;;;9.10;4.57;;;;;;;23.20;59.00;102375.72;10500038;28;20055;-79
2021/07/16 16:46:33;;;;;;;11.95;6.75;;;;;;;23.53;60.84;102465.38;10481139;28;20136;-77
2021/07/16 16:51:33;;;;;;;18.58;6.25;;;;;;;23.27;61.75;102469.56;10442384;28;20124;-79
2021/07/16 16:56:34;;;;;;;24.25;6.20;;;;;;;22.53;63.76;102464.56;10440159;28;20076;-76
2021/07/16 17:01:34;;;;;;;15.57;7.55;;;;;;;22.45;63.15;102454.72;10440728;28;20056;-78
2021/07/16 17:06:36;;;;;;;14.63;6.18;;;;;;;22.03;62.54;102481.50;10440667;28;20111;-76
2021/07/16 17:11:36;;;;;;;20.70;7.15;;;;;;;21.40;62.91;102413.06;10424152;28;20035;-76
2021/07/16 17:16:37;;;;;;;11.32;7.20;;;;;;;21.50;62.88;102451.91;10457255;28;20037;-77
2021/07/16 17:21:41;;;;;;;19.20;6.40;;;;;;;21.32;63.31;102483.09;10407161;28;20033;-78
2021/07/16 17:26:44;;;;;;;27.20;9.30;;;;;;;21.28;64.03;102479.09;10440618;28;20111;-78
2021/07/16 17:31:44;;;;;;;20.35;6.88;;;;;;;21.23;64.15;102484.47;10440080;28;20040;-77
2021/07/16 17:36:45;;;;;;;22.08;8.85;;;;;;;20.80;63.78;102471.59;10456945;28;20029;-79
2021/07/16 17:41:46;;;;;;;17.70;7.90;;;;;;;20.69;64.85;102464.94;10422755;28;20062;-79
2021/07/16 17:46:46;;;;;;;13.85;7.63;;;;;;;20.82;64.89;102481.31;10461943;28;20484;-79
2021/07/16 17:51:46;;;;;;;16.00;5.82;;;;;;;21.06;64.99;102490.59;10522394;28;20063;-78
2021/07/16 17:56:47;;;;;;;19.30;7.28;;;;;;;21.10;67.29;102499.25;10505466;28;20036;-78
2021/07/16 18:01:47;;;;;;;23.80;8.48;;;;;;;20.68;65.17;102430.22;10521995;28;20028;-79
2021/07/16 18:06:50;;;;;;;19.48;7.28;;;;;;;20.96;65.71;102497.69;10539985;28;20035;-78
2021/07/16 18:11:51;;;;;;;24.50;10.15;;;;;;;20.83;65.80;102494.00;10539594;28;20546;-79
2021/07/16 18:16:51;;;;;;;13.00;8.07;;;;;;;20.33;66.40;102487.69;10539341;28;20035;-79
2021/07/16 18:21:52;;;;;;;36.65;9.40;;;;;;;20.10;66.89;102510.25;10540048;28;20036;-80
2021/07/16 18:26:53;;;;;;;15.02;8.13;;;;;;;20.11;66.05;102512.81;10504194;28;20036;-79
2021/07/16 18:31:53;;;;;;;17.50;8.38;;;;;;;20.03;66.55;102509.47;10520798;28;20069;-79
2021/07/16 18:36:54;;;;;;;12.23;7.35;;;;;;;19.86;67.84;102537.47;10520609;28;20042;-79
2021/07/16 18:41:54;;;;;;;14.65;7.78;;;;;;;19.58;67.40;102460.00;10521170;28;20123;-78
2021/07/16 18:46:55;;;;;;;8.00;7.25;;;;;;;19.85;67.65;102524.81;10546829;28;20060;-77
2021/07/16 18:51:56;;;;;;;15.68;7.68;;;;;;;19.53;68.55;102501.91;10547722;28;20036;-76
2021/07/16 18:56:57;;;;;;;16.48;8.13;;;;;;;19.68;67.47;102529.94;10546708;28;20111;-76
2021/07/16 19:01:57;;;;;;;19.27;7.25;;;;;;;19.55;67.68;102534.63;10546444;28;20036;-76
2021/07/16 19:06:58;;;;;;;18.65;7.28;;;;;;;19.42;67.63;102519.03;10546129;28;20020;-76
2021/07/16 19:11:58;;;;;;;6.50;5.90;;;;;;;19.36;67.87;102539.16;10528106;28;20063;-76
2021/07/16 19:16:59;;;;;;;32.00;8.43;;;;;;;18.33;67.67;102389.66;10545694;28;20101;-76
2021/07/16 19:21:59;;;;;;;18.00;8.20;;;;;;;19.07;68.85;102551.47;10527626;28;20024;-76
2021/07/16 19:27:00;;;;;;;21.85;10.25;;;;;;;18.98;69.13;102556.34;10510508;28;20032;-77
2021/07/16 19:32:00;;;;;;;16.98;7.82;;;;;;;18.97;68.75;102549.16;10545649;28;20434;-77
2021/07/16 19:37:02;;;;;;;24.58;8.77;;;;;;;18.83;68.33;102540.09;10545056;28;20063;-76
2021/07/16 19:42:03;;;;;;;32.35;9.30;;;;;;;18.56;68.74;102511.78;10545224;28;20040;-76
2021/07/16 19:47:03;;;;;;;14.85;9.25;;;;;;;18.78;68.45;102573.66;10526482;28;20052;-75
2021/07/16 19:52:06;;;;;;;20.23;7.93;;;;;;;18.44;68.97;102541.78;10544743;28;20067;-77
2021/07/16 19:57:07;;;;;;;18.45;7.22;;;;;;;18.31;69.53;102542.59;10526017;28;20039;-76
2021/07/16 20:02:09;;;;;;;20.15;8.98;;;;;;;18.62;69.23;102601.50;10526597;28;20076;-76
2021/07/16 20:07:10;;;;;;;21.10;8.85;;;;;;;18.58;69.25;102597.50;10509476;28;20111;-77
2021/07/16 20:12:10;;;;;;;37.97;10.50;;;;;;;18.53;69.14;102597.25;10526214;28;20040;-77
2021/07/16 20:17:10;;;;;;;27.58;12.75;;;;;;;18.24;69.40;102571.91;10544962;28;20032;-77
2021/07/16 20:22:12;;;;;;;25.48;10.82;;;;;;;18.36;69.42;102597.66;10553867;28;20047;-76
2021/07/16 20:27:12;;;;;;;16.17;7.80;;;;;;;18.23;69.75;102596.81;10534449;28;20032;-76
2021/07/16 20:32:13;;;;;;;23.13;8.75;;;;;;;18.34;69.79;102609.88;10534548;28;20039;-76
2021/07/16 20:37:14;;;;;;;22.13;10.07;;;;;;;18.21;69.83;102602.47;10527203;28;20115;-76
2021/07/16 20:42:14;;;;;;;23.88;10.00;;;;;;;18.21;70.07;102607.13;10531060;28;20040;-76
2021/07/16 20:47:17;;;;;;;25.10;8.57;;;;;;;17.85;70.50;102561.69;10527618;28;20143;-77
2021/07/16 20:52:17;;;;;;;13.70;9.27;;;;;;;18.02;70.54;102582.16;10548482;28;20028;-77
2021/07/16 20:57:18;;;;;;;12.95;9.15;;;;;;;17.96;70.45;102591.22;10528978;28;20495;-77
2021/07/16 21:02:18;;;;;;;22.52;9.52;;;;;;;18.11;70.36;102610.25;10543030;28;20061;-77
2021/07/16 21:07:19;;;;;;;25.98;10.32;;;;;;;17.96;70.02;102595.84;10544837;28;20024;-77
2021/07/16 21:12:22;;;;;;;20.85;8.88;;;;;;;17.97;70.21;102616.75;10545026;28;20045;-76
2021/07/16 21:17:23;;;;;;;13.73;7.80;;;;;;;17.96;70.39;102615.88;10543743;28;20075;-77
2021/07/16 21:22:23;;;;;;;16.75;9.52;;;;;;;17.44;70.22;102548.81;10547069;28;20063;-78
2021/07/16 21:27:23;;;;;;;29.17;12.05;;;;;;;17.88;70.85;102625.13;10522559;28;20063;-78
2021/07/16 21:32:24;;;;;;;37.88;11.52;;;;;;;17.89;70.67;102632.31;10522206;28;20043;-78
2021/07/16 21:37:24;;;;;;;26.38;9.90;;;;;;;17.88;70.39;102660.78;10522311;28;20039;-77
2021/07/16 21:42:25;;;;;;;22.40;9.02;;;;;;;17.80;70.79;102621.72;10540281;28;20052;-78
2021/07/16 21:47:25;;;;;;;22.20;9.60;;;;;;;17.34;70.77;102546.44;10520548;28;20121;-77
2021/07/16 21:52:25;;;;;;;32.17;11.02;;;;;;;17.79;70.95;102634.59;10494994;28;20055;-78
2021/07/16 21:57:26;;;;;;;27.02;11.07;;;;;;;17.48;70.84;102584.84;10501645;28;20116;-76
2021/07/16 22:02:26;;;;;;;26.33;10.30;;;;;;;17.41;70.62;102574.72;10497723;28;20439;-77
2021/07/16 22:07:27;;;;;;;26.73;10.70;;;;;;;17.75;70.91;102635.19;10463069;28;20485;-77
2021/07/16 22:12:27;;;;;;;21.98;11.85;;;;;;;17.71;70.83;102634.75;10497868;28;20044;-76
2021/07/16 22:17:27;;;;;;;24.67;10.15;;;;;;;17.59;70.73;102628.97;10461710;28;20025;-78
2021/07/16 22:22:28;;;;;;;33.78;10.55;;;;;;;17.62;70.76;102635.94;10480470;28;20037;-76
2021/07/16 22:27:28;;;;;;;16.42;9.65;;;;;;;17.59;71.41;102636.34;10479451;28;20064;-78
2021/07/16 22:32:28;;;;;;;19.80;9.88;;;;;;;17.51;70.96;102628.28;10497196;28;20040;-76
2021/07/16 22:37:29;;;;;;;22.80;9.18;;;;;;;17.48;71.18;102632.25;10479343;28;20056;-78
2021/07/16 22:42:29;;;;;;;29.00;9.95;;;;;;;17.26;71.24;102615.09;10497218;28;20428;-77
2021/07/16 22:47:30;;;;;;;34.80;10.55;;;;;;;17.31;71.29;102607.09;10452480;28;20059;-77
2021/07/16 22:52:30;;;;;;;33.35;13.10;;;;;;;17.35;71.45;102622.06;10455622;28;20484;-77